sensor_id;sensor_type;location;lat;lon;timestamp;pressure;altitude;pressure_sealevel;temperature;humidity
80139;BME280;69467;59.842;17.604;2023-05-07T00:01:47;102651.25;;;2.31;61.93
80139;BME280;69467;59.842;17.604;2023-05-07T00:04:12;102653.09;;;2.31;62.04
80139;BME280;69467;59.842;17.604;2023-05-07T00:06:38;102657.84;;;2.29;62.52
80139;BME280;69467;59.842;17.604;2023-05-07T00:09:04;102660.16;;;2.23;62.28
80139;BME280;69467;59.842;17.604;2023-05-07T00:11:29;102661.31;;;2.21;62.25
80139;BME280;69467;59.842;17.604;2023-05-07T00:13:55;102662.66;;;2.17;62.32
80139;BME280;69467;59.842;17.604;2023-05-07T00:16:20;102660.28;;;2.14;62.63
80139;BME280;69467;59.842;17.604;2023-05-07T00:18:46;102662.13;;;2.13;62.65
80139;BME280;69467;59.842;17.604;2023-05-07T00:21:11;102661.41;;;2.11;62.64
80139;BME280;69467;59.842;17.604;2023-05-07T00:23:37;102662.44;;;2.10;62.59
80139;BME280;69467;59.842;17.604;2023-05-07T00:26:03;102660.75;;;2.09;63.09
80139;BME280;69467;59.842;17.604;2023-05-07T00:28:28;102652.94;;;2.06;62.90
80139;BME280;69467;59.842;17.604;2023-05-07T00:30:53;102657.50;;;2.05;62.38
80139;BME280;69467;59.842;17.604;2023-05-07T00:33:19;102660.38;;;2.04;62.26
80139;BME280;69467;59.842;17.604;2023-05-07T00:35:45;102660.84;;;1.99;63.36
80139;BME280;69467;59.842;17.604;2023-05-07T00:38:11;102659.44;;;1.95;63.17
80139;BME280;69467;59.842;17.604;2023-05-07T00:40:36;102654.81;;;1.87;64.02
80139;BME280;69467;59.842;17.604;2023-05-07T00:43:02;102661.72;;;1.82;64.94
80139;BME280;69467;59.842;17.604;2023-05-07T00:45:27;102650.13;;;1.71;65.02
80139;BME280;69467;59.842;17.604;2023-05-07T00:47:59;102656.69;;;1.69;65.41
80139;BME280;69467;59.842;17.604;2023-05-07T00:50:26;102649.75;;;1.66;66.07
80139;BME280;69467;59.842;17.604;2023-05-07T00:52:52;102657.16;;;1.64;65.55
80139;BME280;69467;59.842;17.604;2023-05-07T00:55:17;102647.66;;;1.60;66.69
80139;BME280;69467;59.842;17.604;2023-05-07T00:57:44;102648.22;;;1.64;64.92
80139;BME280;69467;59.842;17.604;2023-05-07T01:00:10;102652.78;;;1.63;64.75
80139;BME280;69467;59.842;17.604;2023-05-07T01:02:38;102656.47;;;1.62;64.75
80139;BME280;69467;59.842;17.604;2023-05-07T01:05:05;102647.38;;;1.63;64.61
80139;BME280;69467;59.842;17.604;2023-05-07T01:07:32;102649.03;;;1.64;64.00
80139;BME280;69467;59.842;17.604;2023-05-07T01:09:59;102648.22;;;1.64;64.34
80139;BME280;69467;59.842;17.604;2023-05-07T01:12:26;102641.09;;;1.63;64.31
80139;BME280;69467;59.842;17.604;2023-05-07T01:14:53;102641.72;;;1.56;64.81
80139;BME280;69467;59.842;17.604;2023-05-07T01:17:18;102648.59;;;1.51;65.55
80139;BME280;69467;59.842;17.604;2023-05-07T01:19:44;102640.09;;;1.45;65.79
80139;BME280;69467;59.842;17.604;2023-05-07T01:22:10;102642.97;;;1.44;65.12
80139;BME280;69467;59.842;17.604;2023-05-07T01:24:40;102637.56;;;1.44;64.78
80139;BME280;69467;59.842;17.604;2023-05-07T01:27:06;102633.16;;;1.43;64.76
80139;BME280;69467;59.842;17.604;2023-05-07T01:29:32;102653.00;;;1.34;66.13
80139;BME280;69467;59.842;17.604;2023-05-07T01:31:59;102645.19;;;1.31;66.22
80139;BME280;69467;59.842;17.604;2023-05-07T01:34:27;102645.50;;;1.27;66.27
80139;BME280;69467;59.842;17.604;2023-05-07T01:36:54;102649.81;;;1.20;66.64
80139;BME280;69467;59.842;17.604;2023-05-07T01:39:23;102650.25;;;1.16;67.12
80139;BME280;69467;59.842;17.604;2023-05-07T01:41:49;102650.88;;;1.09;68.16
80139;BME280;69467;59.842;17.604;2023-05-07T01:44:15;102652.56;;;1.10;67.41
80139;BME280;69467;59.842;17.604;2023-05-07T01:46:41;102659.94;;;1.08;68.00
80139;BME280;69467;59.842;17.604;2023-05-07T01:49:07;102662.81;;;1.07;67.14
80139;BME280;69467;59.842;17.604;2023-05-07T01:51:33;102659.31;;;0.96;68.79
80139;BME280;69467;59.842;17.604;2023-05-07T01:53:59;102659.44;;;0.95;67.92
80139;BME280;69467;59.842;17.604;2023-05-07T01:56:25;102663.84;;;0.96;66.90
80139;BME280;69467;59.842;17.604;2023-05-07T01:58:51;102658.63;;;0.94;67.50
80139;BME280;69467;59.842;17.604;2023-05-07T02:01:17;102655.53;;;0.89;68.38
80139;BME280;69467;59.842;17.604;2023-05-07T02:03:43;102669.66;;;0.73;71.27
80139;BME280;69467;59.842;17.604;2023-05-07T02:06:08;102670.50;;;0.74;69.57
80139;BME280;69467;59.842;17.604;2023-05-07T02:08:33;102668.25;;;0.69;69.64
80139;BME280;69467;59.842;17.604;2023-05-07T02:10:59;102669.09;;;0.70;68.82
80139;BME280;69467;59.842;17.604;2023-05-07T02:13:28;102671.63;;;0.71;68.67
80139;BME280;69467;59.842;17.604;2023-05-07T02:15:54;102675.19;;;0.72;68.55
80139;BME280;69467;59.842;17.604;2023-05-07T02:18:19;102681.59;;;0.71;68.00
80139;BME280;69467;59.842;17.604;2023-05-07T02:20:45;102680.44;;;0.73;68.05
80139;BME280;69467;59.842;17.604;2023-05-07T02:23:10;102683.13;;;0.73;67.67
80139;BME280;69467;59.842;17.604;2023-05-07T02:25:36;102679.56;;;0.73;67.52
80139;BME280;69467;59.842;17.604;2023-05-07T02:28:01;102682.75;;;0.68;67.54
80139;BME280;69467;59.842;17.604;2023-05-07T02:30:26;102684.88;;;0.64;67.31
80139;BME280;69467;59.842;17.604;2023-05-07T02:32:52;102685.31;;;0.60;67.27
80139;BME280;69467;59.842;17.604;2023-05-07T02:35:17;102686.31;;;0.59;67.10
80139;BME280;69467;59.842;17.604;2023-05-07T02:37:43;102675.53;;;0.59;67.09
80139;BME280;69467;59.842;17.604;2023-05-07T02:40:09;102680.63;;;0.62;67.30
80139;BME280;69467;59.842;17.604;2023-05-07T02:42:35;102682.03;;;0.66;66.99
80139;BME280;69467;59.842;17.604;2023-05-07T02:45:00;102690.41;;;0.63;67.18
80139;BME280;69467;59.842;17.604;2023-05-07T02:47:25;102675.25;;;0.62;67.06
80139;BME280;69467;59.842;17.604;2023-05-07T02:49:54;102676.22;;;0.61;67.12
80139;BME280;69467;59.842;17.604;2023-05-07T02:52:20;102683.59;;;0.59;66.82
80139;BME280;69467;59.842;17.604;2023-05-07T02:54:46;102679.53;;;0.55;67.24
80139;BME280;69467;59.842;17.604;2023-05-07T02:57:11;102676.81;;;0.55;66.96
80139;BME280;69467;59.842;17.604;2023-05-07T02:59:36;102684.03;;;0.54;66.89
80139;BME280;69467;59.842;17.604;2023-05-07T03:02:02;102693.28;;;0.52;66.94
80139;BME280;69467;59.842;17.604;2023-05-07T03:04:27;102688.88;;;0.51;67.04
80139;BME280;69467;59.842;17.604;2023-05-07T03:06:53;102697.28;;;0.47;67.66
80139;BME280;69467;59.842;17.604;2023-05-07T03:09:18;102696.16;;;0.40;69.51
80139;BME280;69467;59.842;17.604;2023-05-07T03:11:44;102695.44;;;0.38;70.77
80139;BME280;69467;59.842;17.604;2023-05-07T03:14:09;102691.50;;;0.32;71.54
80139;BME280;69467;59.842;17.604;2023-05-07T03:16:35;102685.78;;;0.36;70.22
80139;BME280;69467;59.842;17.604;2023-05-07T03:19:00;102684.66;;;0.38;69.85
80139;BME280;69467;59.842;17.604;2023-05-07T03:21:26;102684.97;;;0.35;71.32
80139;BME280;69467;59.842;17.604;2023-05-07T03:23:52;102688.50;;;0.36;70.90
80139;BME280;69467;59.842;17.604;2023-05-07T03:26:17;102687.66;;;0.35;69.70
80139;BME280;69467;59.842;17.604;2023-05-07T03:28:42;102688.66;;;0.34;69.95
80139;BME280;69467;59.842;17.604;2023-05-07T03:31:08;102691.19;;;0.36;69.43
80139;BME280;69467;59.842;17.604;2023-05-07T03:33:34;102691.34;;;0.34;71.10
80139;BME280;69467;59.842;17.604;2023-05-07T03:36:00;102694.91;;;0.25;75.28
80139;BME280;69467;59.842;17.604;2023-05-07T03:38:26;102692.22;;;0.25;72.79
80139;BME280;69467;59.842;17.604;2023-05-07T03:40:51;102701.41;;;0.22;73.72
80139;BME280;69467;59.842;17.604;2023-05-07T03:43:16;102696.75;;;0.24;73.30
80139;BME280;69467;59.842;17.604;2023-05-07T03:45:42;102696.91;;;0.23;76.96
80139;BME280;69467;59.842;17.604;2023-05-07T03:48:07;102700.16;;;0.26;78.55
80139;BME280;69467;59.842;17.604;2023-05-07T03:50:33;102697.03;;;0.31;78.03
80139;BME280;69467;59.842;17.604;2023-05-07T03:52:58;102695.44;;;0.38;79.02
80139;BME280;69467;59.842;17.604;2023-05-07T03:55:24;102694.16;;;0.42;78.07
80139;BME280;69467;59.842;17.604;2023-05-07T03:57:50;102692.88;;;0.46;79.01
80139;BME280;69467;59.842;17.604;2023-05-07T04:00:15;102687.31;;;0.48;80.15
80139;BME280;69467;59.842;17.604;2023-05-07T04:02:41;102688.88;;;0.51;79.82
80139;BME280;69467;59.842;17.604;2023-05-07T04:05:07;102686.63;;;0.56;79.06
80139;BME280;69467;59.842;17.604;2023-05-07T04:07:32;102703.34;;;0.59;79.32
80139;BME280;69467;59.842;17.604;2023-05-07T04:09:58;102707.28;;;0.65;80.10
80139;BME280;69467;59.842;17.604;2023-05-07T04:12:23;102701.63;;;0.68;80.98
80139;BME280;69467;59.842;17.604;2023-05-07T04:14:48;102697.47;;;0.74;79.92
80139;BME280;69467;59.842;17.604;2023-05-07T04:17:14;102701.03;;;0.74;81.27
80139;BME280;69467;59.842;17.604;2023-05-07T04:19:39;102702.97;;;0.82;81.20
80139;BME280;69467;59.842;17.604;2023-05-07T04:22:10;102708.78;;;0.87;80.78
80139;BME280;69467;59.842;17.604;2023-05-07T04:24:35;102718.41;;;0.90;81.20
80139;BME280;69467;59.842;17.604;2023-05-07T04:27:01;102718.25;;;0.91;80.83
80139;BME280;69467;59.842;17.604;2023-05-07T04:29:26;102717.38;;;1.01;81.43
80139;BME280;69467;59.842;17.604;2023-05-07T04:31:52;102712.22;;;1.07;80.60
80139;BME280;69467;59.842;17.604;2023-05-07T04:34:17;102715.19;;;1.14;80.33
80139;BME280;69467;59.842;17.604;2023-05-07T04:36:43;102703.94;;;1.19;80.33
80139;BME280;69467;59.842;17.604;2023-05-07T04:39:08;102712.13;;;1.27;79.87
80139;BME280;69467;59.842;17.604;2023-05-07T04:41:36;102706.81;;;1.35;79.73
80139;BME280;69467;59.842;17.604;2023-05-07T04:44:01;102706.22;;;1.41;79.42
80139;BME280;69467;59.842;17.604;2023-05-07T04:46:29;102720.25;;;1.45;79.58
80139;BME280;69467;59.842;17.604;2023-05-07T04:48:55;102713.25;;;1.52;79.08
80139;BME280;69467;59.842;17.604;2023-05-07T04:51:20;102721.91;;;1.56;79.54
80139;BME280;69467;59.842;17.604;2023-05-07T04:53:46;102722.28;;;1.61;79.60
80139;BME280;69467;59.842;17.604;2023-05-07T04:56:11;102711.59;;;1.69;78.97
80139;BME280;69467;59.842;17.604;2023-05-07T04:58:36;102720.06;;;1.74;79.25
80139;BME280;69467;59.842;17.604;2023-05-07T05:01:02;102718.13;;;1.85;79.10
80139;BME280;69467;59.842;17.604;2023-05-07T05:03:27;102721.59;;;1.95;78.44
80139;BME280;69467;59.842;17.604;2023-05-07T05:05:53;102718.59;;;1.98;78.86
80139;BME280;69467;59.842;17.604;2023-05-07T05:08:18;102723.75;;;2.09;78.58
80139;BME280;69467;59.842;17.604;2023-05-07T05:10:44;102725.28;;;2.12;78.44
80139;BME280;69467;59.842;17.604;2023-05-07T05:13:09;102722.31;;;2.23;78.06
80139;BME280;69467;59.842;17.604;2023-05-07T05:15:38;102718.69;;;2.33;78.13
80139;BME280;69467;59.842;17.604;2023-05-07T05:18:03;102727.72;;;2.41;77.59
80139;BME280;69467;59.842;17.604;2023-05-07T05:20:29;102728.63;;;2.50;77.61
80139;BME280;69467;59.842;17.604;2023-05-07T05:22:54;102725.09;;;2.58;77.44
80139;BME280;69467;59.842;17.604;2023-05-07T05:25:20;102721.16;;;2.70;76.81
80139;BME280;69467;59.842;17.604;2023-05-07T05:27:45;102725.59;;;2.80;76.19
80139;BME280;69467;59.842;17.604;2023-05-07T05:30:11;102721.94;;;2.89;76.15
80139;BME280;69467;59.842;17.604;2023-05-07T05:32:38;102723.28;;;2.93;76.13
80139;BME280;69467;59.842;17.604;2023-05-07T05:35:03;102729.44;;;3.03;75.46
80139;BME280;69467;59.842;17.604;2023-05-07T05:37:29;102723.22;;;3.11;75.66
80139;BME280;69467;59.842;17.604;2023-05-07T05:39:56;102726.94;;;3.18;74.79
80139;BME280;69467;59.842;17.604;2023-05-07T05:42:21;102721.41;;;3.20;75.28
80139;BME280;69467;59.842;17.604;2023-05-07T05:44:47;102731.06;;;3.31;74.82
80139;BME280;69467;59.842;17.604;2023-05-07T05:47:13;102721.25;;;3.38;74.79
80139;BME280;69467;59.842;17.604;2023-05-07T05:49:39;102724.50;;;3.42;74.47
80139;BME280;69467;59.842;17.604;2023-05-07T05:52:04;102721.16;;;3.56;74.06
80139;BME280;69467;59.842;17.604;2023-05-07T05:54:29;102733.88;;;3.64;74.17
80139;BME280;69467;59.842;17.604;2023-05-07T05:56:55;102733.53;;;3.67;73.59
80139;BME280;69467;59.842;17.604;2023-05-07T05:59:20;102732.22;;;3.79;73.00
80139;BME280;69467;59.842;17.604;2023-05-07T06:01:46;102732.06;;;3.89;72.44
80139;BME280;69467;59.842;17.604;2023-05-07T06:04:12;102728.00;;;3.93;71.57
80139;BME280;69467;59.842;17.604;2023-05-07T06:06:37;102744.28;;;4.01;71.04
80139;BME280;69467;59.842;17.604;2023-05-07T06:09:02;102736.13;;;4.01;69.81
80139;BME280;69467;59.842;17.604;2023-05-07T06:11:28;102733.75;;;4.07;69.95
80139;BME280;69467;59.842;17.604;2023-05-07T06:13:53;102735.28;;;4.17;69.97
80139;BME280;69467;59.842;17.604;2023-05-07T06:16:19;102734.25;;;4.27;69.16
80139;BME280;69467;59.842;17.604;2023-05-07T06:18:44;102731.56;;;4.35;68.81
80139;BME280;69467;59.842;17.604;2023-05-07T06:21:12;102740.03;;;4.40;66.24
80139;BME280;69467;59.842;17.604;2023-05-07T06:23:38;102740.16;;;4.47;65.97
80139;BME280;69467;59.842;17.604;2023-05-07T06:26:06;102732.72;;;4.49;65.91
80139;BME280;69467;59.842;17.604;2023-05-07T06:28:31;102737.13;;;4.58;65.30
80139;BME280;69467;59.842;17.604;2023-05-07T06:31:15;102739.47;;;4.61;64.34
80139;BME280;69467;59.842;17.604;2023-05-07T06:33:41;102734.88;;;4.70;63.75
80139;BME280;69467;59.842;17.604;2023-05-07T06:36:07;102732.16;;;4.87;63.01
80139;BME280;69467;59.842;17.604;2023-05-07T06:38:33;102740.09;;;4.96;60.93
80139;BME280;69467;59.842;17.604;2023-05-07T06:40:58;102728.84;;;5.08;60.74
80139;BME280;69467;59.842;17.604;2023-05-07T06:43:23;102730.84;;;5.14;58.88
80139;BME280;69467;59.842;17.604;2023-05-07T06:45:49;102731.75;;;5.06;58.18
80139;BME280;69467;59.842;17.604;2023-05-07T06:48:14;102726.41;;;5.21;58.11
80139;BME280;69467;59.842;17.604;2023-05-07T06:50:40;102737.06;;;5.31;57.44
80139;BME280;69467;59.842;17.604;2023-05-07T06:53:06;102728.34;;;5.44;58.17
80139;BME280;69467;59.842;17.604;2023-05-07T06:55:32;102730.34;;;5.50;56.50
80139;BME280;69467;59.842;17.604;2023-05-07T06:57:57;102725.03;;;5.57;56.00
80139;BME280;69467;59.842;17.604;2023-05-07T07:00:26;102733.72;;;5.52;54.00
80139;BME280;69467;59.842;17.604;2023-05-07T07:02:52;102727.84;;;5.72;54.55
80139;BME280;69467;59.842;17.604;2023-05-07T07:05:18;102727.13;;;5.78;55.21
80139;BME280;69467;59.842;17.604;2023-05-07T07:07:43;102728.13;;;5.77;54.54
80139;BME280;69467;59.842;17.604;2023-05-07T07:10:09;102726.50;;;5.91;53.28
80139;BME280;69467;59.842;17.604;2023-05-07T07:12:35;102722.56;;;6.02;53.18
80139;BME280;69467;59.842;17.604;2023-05-07T07:15:00;102731.97;;;6.14;53.22
80139;BME280;69467;59.842;17.604;2023-05-07T07:17:25;102725.41;;;6.23;52.03
80139;BME280;69467;59.842;17.604;2023-05-07T07:19:51;102721.97;;;6.29;51.28
80139;BME280;69467;59.842;17.604;2023-05-07T07:22:16;102719.25;;;6.29;50.72
80139;BME280;69467;59.842;17.604;2023-05-07T07:24:41;102713.28;;;6.49;50.85
80139;BME280;69467;59.842;17.604;2023-05-07T07:27:07;102718.38;;;6.52;50.42
80139;BME280;69467;59.842;17.604;2023-05-07T07:29:32;102717.16;;;6.70;50.42
80139;BME280;69467;59.842;17.604;2023-05-07T07:31:58;102712.66;;;6.92;51.11
80139;BME280;69467;59.842;17.604;2023-05-07T07:34:23;102713.94;;;6.96;50.03
80139;BME280;69467;59.842;17.604;2023-05-07T07:36:49;102719.88;;;7.00;48.95
80139;BME280;69467;59.842;17.604;2023-05-07T07:39:14;102711.81;;;6.91;47.97
80139;BME280;69467;59.842;17.604;2023-05-07T07:41:39;102712.84;;;6.90;48.92
80139;BME280;69467;59.842;17.604;2023-05-07T07:44:05;102711.50;;;7.16;48.85
80139;BME280;69467;59.842;17.604;2023-05-07T07:46:32;102710.44;;;7.17;48.73
80139;BME280;69467;59.842;17.604;2023-05-07T07:48:58;102724.66;;;7.28;48.74
80139;BME280;69467;59.842;17.604;2023-05-07T07:51:25;102704.56;;;6.99;49.90
80139;BME280;69467;59.842;17.604;2023-05-07T07:53:50;102708.38;;;7.34;49.50
80139;BME280;69467;59.842;17.604;2023-05-07T07:56:15;102701.88;;;7.72;49.06
80139;BME280;69467;59.842;17.604;2023-05-07T07:58:41;102707.06;;;7.88;48.52
80139;BME280;69467;59.842;17.604;2023-05-07T08:01:07;102699.91;;;8.09;48.25
80139;BME280;69467;59.842;17.604;2023-05-07T08:03:32;102701.41;;;8.40;47.76
80139;BME280;69467;59.842;17.604;2023-05-07T08:05:58;102703.25;;;8.54;47.17
80139;BME280;69467;59.842;17.604;2023-05-07T08:08:23;102699.25;;;8.57;46.57
80139;BME280;69467;59.842;17.604;2023-05-07T08:10:49;102700.50;;;8.54;48.31
80139;BME280;69467;59.842;17.604;2023-05-07T08:13:16;102700.38;;;8.41;46.89
80139;BME280;69467;59.842;17.604;2023-05-07T08:15:41;102695.53;;;8.43;46.16
80139;BME280;69467;59.842;17.604;2023-05-07T08:18:06;102698.25;;;8.65;45.67
80139;BME280;69467;59.842;17.604;2023-05-07T08:20:32;102693.56;;;8.94;44.55
80139;BME280;69467;59.842;17.604;2023-05-07T08:22:58;102700.38;;;8.41;45.26
80139;BME280;69467;59.842;17.604;2023-05-07T08:25:24;102701.44;;;8.68;44.42
80139;BME280;69467;59.842;17.604;2023-05-07T08:27:49;102689.59;;;8.54;44.38
80139;BME280;69467;59.842;17.604;2023-05-07T08:30:15;102703.34;;;8.75;44.04
80139;BME280;69467;59.842;17.604;2023-05-07T08:32:40;102693.41;;;8.95;43.81
80139;BME280;69467;59.842;17.604;2023-05-07T08:35:06;102699.59;;;9.24;42.66
80139;BME280;69467;59.842;17.604;2023-05-07T08:37:31;102710.72;;;9.16;42.92
80139;BME280;69467;59.842;17.604;2023-05-07T08:39:57;102695.28;;;9.50;42.91
80139;BME280;69467;59.842;17.604;2023-05-07T08:42:23;102698.00;;;9.50;41.66
80139;BME280;69467;59.842;17.604;2023-05-07T08:44:51;102705.66;;;9.75;40.10
80139;BME280;69467;59.842;17.604;2023-05-07T08:47:19;102691.31;;;9.59;39.32
80139;BME280;69467;59.842;17.604;2023-05-07T08:49:47;102691.72;;;9.63;39.34
80139;BME280;69467;59.842;17.604;2023-05-07T08:52:13;102687.81;;;10.12;39.00
80139;BME280;69467;59.842;17.604;2023-05-07T08:54:39;102687.56;;;10.21;39.32
80139;BME280;69467;59.842;17.604;2023-05-07T08:57:05;102687.78;;;10.19;39.31
80139;BME280;69467;59.842;17.604;2023-05-07T08:59:31;102694.75;;;10.22;39.23
80139;BME280;69467;59.842;17.604;2023-05-07T09:01:56;102688.38;;;9.88;39.57
80139;BME280;69467;59.842;17.604;2023-05-07T09:04:22;102684.22;;;10.52;38.95
80139;BME280;69467;59.842;17.604;2023-05-07T09:06:47;102680.00;;;10.50;38.85
80139;BME280;69467;59.842;17.604;2023-05-07T09:09:17;102674.03;;;10.73;38.05
80139;BME280;69467;59.842;17.604;2023-05-07T09:11:45;102693.03;;;10.68;38.34
80139;BME280;69467;59.842;17.604;2023-05-07T09:14:10;102675.78;;;10.13;38.42
80139;BME280;69467;59.842;17.604;2023-05-07T09:16:35;102686.31;;;10.37;37.98
80139;BME280;69467;59.842;17.604;2023-05-07T09:19:01;102680.00;;;10.43;38.87
80139;BME280;69467;59.842;17.604;2023-05-07T09:21:26;102684.22;;;10.39;38.11
80139;BME280;69467;59.842;17.604;2023-05-07T09:23:54;102675.75;;;10.67;36.20
80139;BME280;69467;59.842;17.604;2023-05-07T09:26:23;102674.88;;;10.73;36.82
80139;BME280;69467;59.842;17.604;2023-05-07T09:28:50;102676.13;;;10.77;37.65
80139;BME280;69467;59.842;17.604;2023-05-07T09:31:16;102681.22;;;10.67;37.17
80139;BME280;69467;59.842;17.604;2023-05-07T09:33:41;102676.28;;;10.96;36.70
80139;BME280;69467;59.842;17.604;2023-05-07T09:36:08;102668.78;;;11.23;35.40
80139;BME280;69467;59.842;17.604;2023-05-07T09:38:35;102668.50;;;10.93;35.90
80139;BME280;69467;59.842;17.604;2023-05-07T09:41:08;102688.13;;;10.90;36.29
80139;BME280;69467;59.842;17.604;2023-05-07T09:43:35;102670.34;;;11.13;35.93
80139;BME280;69467;59.842;17.604;2023-05-07T09:46:07;102671.06;;;11.33;35.08
80139;BME280;69467;59.842;17.604;2023-05-07T09:48:43;102675.06;;;11.31;35.41
80139;BME280;69467;59.842;17.604;2023-05-07T09:51:25;102668.22;;;11.53;35.76
80139;BME280;69467;59.842;17.604;2023-05-07T09:53:54;102667.63;;;11.44;35.90
80139;BME280;69467;59.842;17.604;2023-05-07T09:56:21;102662.34;;;11.04;34.74
80139;BME280;69467;59.842;17.604;2023-05-07T09:58:48;102662.66;;;10.76;35.26
80139;BME280;69467;59.842;17.604;2023-05-07T10:01:16;102664.16;;;11.17;36.66
80139;BME280;69467;59.842;17.604;2023-05-07T10:03:43;102656.59;;;11.83;36.04
80139;BME280;69467;59.842;17.604;2023-05-07T10:06:09;102656.94;;;11.93;34.47
80139;BME280;69467;59.842;17.604;2023-05-07T10:08:35;102659.09;;;11.91;34.64
80139;BME280;69467;59.842;17.604;2023-05-07T10:11:01;102664.19;;;11.88;33.41
80139;BME280;69467;59.842;17.604;2023-05-07T10:13:28;102650.47;;;12.13;33.15
80139;BME280;69467;59.842;17.604;2023-05-07T10:15:54;102657.41;;;12.16;33.16
80139;BME280;69467;59.842;17.604;2023-05-07T10:18:21;102654.34;;;12.68;34.39
80139;BME280;69467;59.842;17.604;2023-05-07T10:20:55;102657.03;;;12.56;33.04
80139;BME280;69467;59.842;17.604;2023-05-07T10:23:27;102660.16;;;12.16;32.62
80139;BME280;69467;59.842;17.604;2023-05-07T10:25:53;102662.59;;;11.73;34.82
80139;BME280;69467;59.842;17.604;2023-05-07T10:28:21;102653.47;;;12.30;34.42
80139;BME280;69467;59.842;17.604;2023-05-07T10:33:27;102658.31;;;11.77;34.00
80139;BME280;69467;59.842;17.604;2023-05-07T10:36:01;102653.19;;;12.38;33.79
80139;BME280;69467;59.842;17.604;2023-05-07T10:38:29;102647.44;;;12.21;33.86
80139;BME280;69467;59.842;17.604;2023-05-07T10:40:55;102634.41;;;12.35;34.80
80139;BME280;69467;59.842;17.604;2023-05-07T10:43:21;102634.69;;;12.27;33.67
80139;BME280;69467;59.842;17.604;2023-05-07T10:46:13;102635.94;;;13.05;33.89
80139;BME280;69467;59.842;17.604;2023-05-07T10:51:27;102633.03;;;13.00;32.81
80139;BME280;69467;59.842;17.604;2023-05-07T10:56:38;102637.94;;;12.80;33.06
80139;BME280;69467;59.842;17.604;2023-05-07T11:02:00;102646.88;;;12.56;32.05
80139;BME280;69467;59.842;17.604;2023-05-07T11:04:28;102640.50;;;13.12;32.13
80139;BME280;69467;59.842;17.604;2023-05-07T11:15:06;102639.88;;;13.59;32.19
80139;BME280;69467;59.842;17.604;2023-05-07T11:17:32;102633.97;;;14.21;31.63
80139;BME280;69467;59.842;17.604;2023-05-07T11:20:01;102632.22;;;13.73;32.52
80139;BME280;69467;59.842;17.604;2023-05-07T11:25:07;102639.47;;;14.09;31.73
80139;BME280;69467;59.842;17.604;2023-05-07T11:27:32;102628.47;;;14.21;31.93
80139;BME280;69467;59.842;17.604;2023-05-07T11:29:59;102634.09;;;14.03;32.08
80139;BME280;69467;59.842;17.604;2023-05-07T11:32:27;102628.69;;;13.96;31.21
80139;BME280;69467;59.842;17.604;2023-05-07T11:34:54;102617.63;;;13.84;32.06
80139;BME280;69467;59.842;17.604;2023-05-07T11:37:21;102624.34;;;13.76;32.42
80139;BME280;69467;59.842;17.604;2023-05-07T11:39:46;102619.78;;;13.58;33.88
80139;BME280;69467;59.842;17.604;2023-05-07T11:42:29;102620.25;;;13.67;32.71
80139;BME280;69467;59.842;17.604;2023-05-07T11:44:55;102617.28;;;13.68;31.94
80139;BME280;69467;59.842;17.604;2023-05-07T11:47:20;102604.47;;;13.86;32.72
80139;BME280;69467;59.842;17.604;2023-05-07T11:49:50;102599.44;;;14.30;31.75
80139;BME280;69467;59.842;17.604;2023-05-07T11:52:17;102599.09;;;14.27;32.08
80139;BME280;69467;59.842;17.604;2023-05-07T11:54:50;102603.59;;;14.69;31.40
80139;BME280;69467;59.842;17.604;2023-05-07T11:57:16;102600.38;;;13.65;32.35
80139;BME280;69467;59.842;17.604;2023-05-07T11:59:42;102600.53;;;14.06;31.13
80139;BME280;69467;59.842;17.604;2023-05-07T12:02:10;102606.84;;;13.59;32.00
80139;BME280;69467;59.842;17.604;2023-05-07T12:04:35;102620.06;;;13.38;32.80
80139;BME280;69467;59.842;17.604;2023-05-07T12:07:01;102606.63;;;13.72;34.34
80139;BME280;69467;59.842;17.604;2023-05-07T12:09:26;102590.00;;;14.26;33.17
80139;BME280;69467;59.842;17.604;2023-05-07T12:11:52;102595.81;;;14.42;31.14
80139;BME280;69467;59.842;17.604;2023-05-07T12:14:18;102587.84;;;14.05;33.18
80139;BME280;69467;59.842;17.604;2023-05-07T12:16:44;102578.34;;;14.12;33.79
80139;BME280;69467;59.842;17.604;2023-05-07T12:19:11;102586.13;;;14.51;31.86
80139;BME280;69467;59.842;17.604;2023-05-07T12:21:40;102580.97;;;14.95;32.69
80139;BME280;69467;59.842;17.604;2023-05-07T12:24:05;102580.53;;;15.16;30.15
80139;BME280;69467;59.842;17.604;2023-05-07T12:26:31;102590.75;;;14.62;31.06
80139;BME280;69467;59.842;17.604;2023-05-07T12:28:59;102596.78;;;13.76;31.13
80139;BME280;69467;59.842;17.604;2023-05-07T12:31:28;102598.78;;;12.96;32.51
80139;BME280;69467;59.842;17.604;2023-05-07T12:33:53;102594.63;;;13.55;32.49
80139;BME280;69467;59.842;17.604;2023-05-07T12:36:19;102585.91;;;14.29;32.33
80139;BME280;69467;59.842;17.604;2023-05-07T12:38:49;102577.97;;;14.44;31.07
80139;BME280;69467;59.842;17.604;2023-05-07T12:41:15;102587.69;;;14.35;30.84
80139;BME280;69467;59.842;17.604;2023-05-07T12:43:43;102588.97;;;14.56;32.18
80139;BME280;69467;59.842;17.604;2023-05-07T12:46:09;102587.66;;;15.00;30.93
80139;BME280;69467;59.842;17.604;2023-05-07T12:48:38;102587.91;;;14.57;29.72
80139;BME280;69467;59.842;17.604;2023-05-07T12:51:05;102576.94;;;14.86;30.31
80139;BME280;69467;59.842;17.604;2023-05-07T12:53:31;102576.59;;;15.11;29.08
80139;BME280;69467;59.842;17.604;2023-05-07T12:55:58;102574.97;;;15.27;30.05
80139;BME280;69467;59.842;17.604;2023-05-07T12:58:29;102575.50;;;14.19;30.89
80139;BME280;69467;59.842;17.604;2023-05-07T13:00:58;102571.19;;;13.99;30.73
80139;BME280;69467;59.842;17.604;2023-05-07T13:03:32;102566.84;;;13.14;31.85
80139;BME280;69467;59.842;17.604;2023-05-07T13:06:00;102565.72;;;13.03;31.73